Etusivu
METAR-TAF:

METAR-TAF

Lentoasemat :

Lemmijoki, Norja

Leveyspiiri: 70-04N, Pituuspiiri: 024-59E, korkeus merenpinnasta: 0 m

Tämänhetkinen sää

Tämä raportti tehtiin 36 minuuttia sitten, kello 22.20 UTC
Tuuli 2 kn lounaasta
Lämpötila -7°C
Kosteus 93%
Ilmanpaine 1000 hPa
Näkyvyys: 1000 m
utua

METAR: ENNA 172220Z 22002KT 1000 R16/P2000N R34/P2000N BR VV002 M07/M08 Q1000 RMK WIND 1800FT VRB03KT

Aika: 23:56 (22:56 UTC)

Sääennuste

Ennuste voimassa 17. päivästä klo 18 UTC - 18. päivään klo 18 UTC
Tuuli 5 kn eri suunnista
Näkyvyys 10 km tai enemmän
Muutamia pilviä 500 ft:n korkeudessa
Ajoittain
17. päivästä klo 18 UTC - 18. päivään klo 18 UTC
Hajonneita pilviä 500 ft:n korkeudessa

TAF: ENNA 1718/1818 VRB05KT 9999 FEW005 TEMPO 1718/1818 BKN005

Säähavainnot ja -ennusteet yli 4000 lentoasemalta (METAR- ja TAF-raportit).

Käytössä olevat sääasemat on merkitty karttaan keltaisilla ja punaisilla pisteillä.

Aseta hiiri pisteen päälle nähdäksesi sääaseman nimen.

Klikkaa sitten nähdäksesi säähavainnot ja -ennusteet.

Kartan vaihtaminen: klikkaa mustalla rastilla varustettuja vihreitä pisteitä, niin voit zoomata sisään; viivalla varustettua vihreää pistettä, niin voit zoomata ulos tai vihreitä nuolia, niin pääset viereisille kartoille.


METAR-TAF: